Time;durP1;ratioP1;P1;durP2;ratioP2;P2;SDS_P1;SDS_P2;PMS_P1;PMS_P2;Temp;Humidity;BMP_temperature;BMP_pressure;BME280_temperature;BME280_humidity;BME280_pressure;Samples;Min_cycle;Max_cycle;Signal;HPM_P1;HPM_P2
2023/09/14 00:01:49;;;;;;;7.93;2.27;;;;;;;;;;5031728;28;20739;-58
2023/09/14 00:04:15;;;;;;;8.27;2.40;;;;;;;;;;5020650;28;20414;-59
2023/09/14 00:06:41;;;;;;;9.27;2.63;;;;;;;;;;5018962;28;20894;-59
2023/09/14 00:09:06;;;;;;;7.45;2.03;;;;;;;;;;5021945;28;20394;-59
2023/09/14 00:11:31;;;;;;;11.50;2.40;;;;;;;;;;5031177;28;20399;-59
2023/09/14 00:13:57;;;;;;;8.53;2.07;;;;;;;;;;5027376;28;20406;-59
2023/09/14 00:16:22;;;;;;;10.33;2.40;;;;;;;;;;5032882;28;20511;-59
2023/09/14 00:18:47;;;;;;;9.80;2.20;;;;;;;;;;5037959;28;20420;-59
2023/09/14 00:21:13;;;;;;;8.03;2.30;;;;;;;;;;5034644;28;20455;-59
2023/09/14 00:23:38;;;;;;;7.83;2.30;;;;;;;;;;5032721;28;20425;-59
2023/09/14 00:26:03;;;;;;;8.80;2.43;;;;;;;;;;5034633;28;20417;-59
2023/09/14 00:28:29;;;;;;;7.93;2.20;;;;;;;;;;5038363;28;20823;-58
2023/09/14 00:30:54;;;;;;;6.00;2.08;;;;;;;;;;5033223;28;20456;-59
2023/09/14 00:33:20;;;;;;;8.23;2.10;;;;;;;;;;5018000;28;20403;-59
2023/09/14 00:35:46;;;;;;;8.45;2.53;;;;;;;;;;5000773;28;20412;-59
2023/09/14 00:38:11;;;;;;;7.80;2.30;;;;;;;;;;5026207;28;20409;-59
2023/09/14 00:40:38;;;;;;;7.90;2.20;;;;;;;;;;5047470;28;20443;-59
2023/09/14 00:43:03;;;;;;;8.57;2.20;;;;;;;;;;5045684;28;20452;-59
2023/09/14 00:45:28;;;;;;;8.77;2.30;;;;;;;;;;5033124;28;20799;-59
2023/09/14 00:47:54;;;;;;;8.20;2.17;;;;;;;;;;5041466;28;20405;-59
2023/09/14 00:50:19;;;;;;;8.93;2.27;;;;;;;;;;5048220;28;20429;-59
2023/09/14 00:52:46;;;;;;;7.68;2.33;;;;;;;;;;5046176;28;20514;-59
2023/09/14 00:55:12;;;;;;;9.98;2.53;;;;;;;;;;5041444;28;20850;-59
2023/09/14 00:57:37;;;;;;;8.65;2.20;;;;;;;;;;5045359;28;20405;-59
2023/09/14 01:00:05;;;;;;;8.10;2.47;;;;;;;;;;5036583;28;20405;-59
2023/09/14 01:02:32;;;;;;;8.85;2.45;;;;;;;;;;5023465;28;20407;-59
2023/09/14 01:04:57;;;;;;;6.03;2.10;;;;;;;;;;5024226;28;20415;-59
2023/09/14 01:07:23;;;;;;;6.23;1.97;;;;;;;;;;5025423;28;20396;-59
2023/09/14 01:09:48;;;;;;;8.30;2.13;;;;;;;;;;5026039;28;20770;-59
2023/09/14 01:12:14;;;;;;;7.15;1.88;;;;;;;;;;5021456;28;20408;-59
2023/09/14 01:14:41;;;;;;;7.07;1.95;;;;;;;;;;5024324;28;20395;-59
2023/09/14 01:17:09;;;;;;;8.30;2.00;;;;;;;;;;5025683;28;21226;-59
2023/09/14 01:19:42;;;;;;;6.28;1.90;;;;;;;;;;5021636;28;20750;-59
2023/09/14 01:22:08;;;;;;;9.40;2.20;;;;;;;;;;5022669;28;20421;-59
2023/09/14 01:24:34;;;;;;;8.70;2.20;;;;;;;;;;5025453;28;20762;-59
2023/09/14 01:26:59;;;;;;;10.13;2.13;;;;;;;;;;5024997;28;20426;-59
2023/09/14 01:29:25;;;;;;;7.13;1.90;;;;;;;;;;5018388;28;20405;-59
2023/09/14 01:31:50;;;;;;;8.53;2.00;;;;;;;;;;5026354;28;20423;-59
2023/09/14 01:34:16;;;;;;;10.40;2.27;;;;;;;;;;5025450;28;20819;-59
2023/09/14 01:39:44;;;;;;;6.55;1.70;;;;;;;;;;5037749;28;20493;-59
2023/09/14 01:42:10;;;;;;;6.80;1.90;;;;;;;;;;5040378;28;20510;-58
2023/09/14 01:44:35;;;;;;;8.60;2.30;;;;;;;;;;5021273;28;20465;-59
2023/09/14 01:47:01;;;;;;;7.13;2.03;;;;;;;;;;5013163;28;20407;-61
2023/09/14 01:49:26;;;;;;;8.90;2.00;;;;;;;;;;5009815;28;20423;-59
2023/09/14 01:51:51;;;;;;;8.43;2.00;;;;;;;;;;5008327;28;21193;-59
2023/09/14 01:54:16;;;;;;;8.70;2.17;;;;;;;;;;5006297;28;20408;-59
2023/09/14 01:56:42;;;;;;;8.07;2.10;;;;;;;;;;5003603;28;20460;-59
2023/09/14 01:59:07;;;;;;;8.30;2.10;;;;;;;;;;5005073;28;20507;-59
2023/09/14 02:01:32;;;;;;;7.33;2.07;;;;;;;;;;5011889;28;20497;-59
2023/09/14 02:03:58;;;;;;;8.63;2.20;;;;;;;;;;4974887;28;20437;-58
2023/09/14 02:06:23;;;;;;;7.77;2.07;;;;;;;;;;4970931;28;20389;-59
2023/09/14 02:08:48;;;;;;;8.87;2.10;;;;;;;;;;4971035;28;20419;-59
2023/09/14 02:11:14;;;;;;;8.87;2.00;;;;;;;;;;4974769;28;20443;-59
2023/09/14 02:13:39;;;;;;;9.27;2.27;;;;;;;;;;4971073;28;20508;-58
2023/09/14 02:16:05;;;;;;;9.60;2.10;;;;;;;;;;4963003;28;21333;-59
2023/09/14 02:18:30;;;;;;;8.67;2.17;;;;;;;;;;4963155;28;20408;-59
2023/09/14 02:20:55;;;;;;;7.60;2.20;;;;;;;;;;4965059;28;20938;-59
2023/09/14 02:23:21;;;;;;;8.47;2.27;;;;;;;;;;4970447;28;20863;-59
2023/09/14 02:25:46;;;;;;;7.50;2.23;;;;;;;;;;4970689;28;20910;-59
2023/09/14 02:28:13;;;;;;;6.10;2.10;;;;;;;;;;4975648;28;20431;-59
2023/09/14 02:30:39;;;;;;;9.15;2.38;;;;;;;;;;4970888;28;20500;-58
2023/09/14 02:33:06;;;;;;;6.20;2.17;;;;;;;;;;4969581;28;20534;-58
2023/09/14 02:35:31;;;;;;;7.13;2.25;;;;;;;;;;4973237;28;20408;-58
2023/09/14 02:37:56;;;;;;;6.95;2.00;;;;;;;;;;4967056;28;20482;-59
2023/09/14 02:40:22;;;;;;;8.20;2.13;;;;;;;;;;4962799;28;20405;-58
2023/09/14 02:42:47;;;;;;;6.73;1.90;;;;;;;;;;4965201;28;20416;-58
2023/09/14 02:45:12;;;;;;;8.20;2.33;;;;;;;;;;4973025;28;21041;-59
2023/09/14 02:47:38;;;;;;;8.47;2.30;;;;;;;;;;4970684;28;20704;-58
2023/09/14 02:50:03;;;;;;;9.37;2.53;;;;;;;;;;4970212;28;20959;-59
2023/09/14 02:52:28;;;;;;;6.40;1.90;;;;;;;;;;4975447;28;20845;-59
2023/09/14 02:54:54;;;;;;;8.25;2.22;;;;;;;;;;4969492;28;20411;-58
2023/09/14 02:57:19;;;;;;;8.07;2.17;;;;;;;;;;4970352;28;20460;-58
2023/09/14 02:59:44;;;;;;;8.70;2.30;;;;;;;;;;4967585;28;21037;-58
2023/09/14 03:02:10;;;;;;;7.77;1.90;;;;;;;;;;4974222;28;21288;-59
2023/09/14 03:04:35;;;;;;;9.43;2.33;;;;;;;;;;5001348;28;20411;-59
2023/09/14 03:07:00;;;;;;;7.23;2.00;;;;;;;;;;4998718;28;20408;-60
2023/09/14 03:09:26;;;;;;;7.23;2.33;;;;;;;;;;5005188;28;20397;-58
2023/09/14 03:11:53;;;;;;;9.13;2.47;;;;;;;;;;5003072;28;20526;-59
2023/09/14 03:14:18;;;;;;;8.13;2.60;;;;;;;;;;5004982;28;20413;-59
2023/09/14 03:16:44;;;;;;;8.87;2.10;;;;;;;;;;4994886;28;20430;-58
2023/09/14 03:19:09;;;;;;;10.07;2.70;;;;;;;;;;4987743;28;21032;-58
2023/09/14 03:21:34;;;;;;;9.00;2.33;;;;;;;;;;4987467;28;20904;-58
2023/09/14 03:24:00;;;;;;;8.47;2.27;;;;;;;;;;4984076;28;20421;-58
2023/09/14 03:26:27;;;;;;;7.60;2.20;;;;;;;;;;4984714;28;20404;-58
2023/09/14 03:28:52;;;;;;;8.67;2.50;;;;;;;;;;5012761;28;21098;-58
2023/09/14 03:31:18;;;;;;;8.35;2.20;;;;;;;;;;5022745;28;20415;-59
2023/09/14 03:33:45;;;;;;;9.37;2.30;;;;;;;;;;5018956;28;20399;-59
2023/09/14 03:36:10;;;;;;;10.68;2.22;;;;;;;;;;5022593;28;20409;-59
2023/09/14 03:38:36;;;;;;;6.45;2.13;;;;;;;;;;5023701;28;20406;-59
2023/09/14 03:41:02;;;;;;;6.83;2.93;;;;;;;;;;5018257;28;20403;-59
2023/09/14 03:43:27;;;;;;;10.07;2.77;;;;;;;;;;5021561;28;20418;-59
2023/09/14 03:45:52;;;;;;;8.33;2.60;;;;;;;;;;5023598;28;20421;-58
2023/09/14 03:48:17;;;;;;;6.77;2.43;;;;;;;;;;5020500;28;20733;-59
2023/09/14 03:50:43;;;;;;;8.00;2.57;;;;;;;;;;5020013;28;20914;-59
2023/09/14 03:53:10;;;;;;;6.97;2.30;;;;;;;;;;5021720;28;20410;-59
2023/09/14 03:55:35;;;;;;;8.52;2.40;;;;;;;;;;5023264;28;20497;-59
2023/09/14 03:58:00;;;;;;;7.70;2.43;;;;;;;;;;5016803;28;20455;-60
2023/09/14 04:00:25;;;;;;;9.93;2.50;;;;;;;;;;5022142;28;20484;-59
2023/09/14 04:02:51;;;;;;;8.47;2.60;;;;;;;;;;5022100;28;20435;-59
2023/09/14 04:05:17;;;;;;;10.75;2.60;;;;;;;;;;4991993;28;20406;-59
2023/09/14 04:07:43;;;;;;;7.85;2.58;;;;;;;;;;4991413;28;20562;-59
2023/09/14 04:10:11;;;;;;;7.90;2.78;;;;;;;;;;4987726;28;20402;-59
2023/09/14 04:12:38;;;;;;;7.85;2.70;;;;;;;;;;4990510;28;20434;-58
2023/09/14 04:15:03;;;;;;;7.88;2.30;;;;;;;;;;4992389;28;20415;-59
2023/09/14 04:17:29;;;;;;;8.67;2.40;;;;;;;;;;4988299;28;20465;-59
2023/09/14 04:19:54;;;;;;;9.00;2.73;;;;;;;;;;4989066;28;20406;-58
2023/09/14 04:22:19;;;;;;;7.73;2.30;;;;;;;;;;4986584;28;20390;-58
2023/09/14 04:24:45;;;;;;;8.57;2.65;;;;;;;;;;4981830;28;20411;-58
2023/09/14 04:27:10;;;;;;;6.30;2.30;;;;;;;;;;4979982;28;20418;-58
2023/09/14 04:29:35;;;;;;;7.63;2.50;;;;;;;;;;4988722;28;20406;-58
2023/09/14 04:32:01;;;;;;;8.93;2.50;;;;;;;;;;4989174;28;20409;-59
2023/09/14 04:34:26;;;;;;;7.67;2.90;;;;;;;;;;4987353;28;20508;-58
2023/09/14 04:36:52;;;;;;;7.28;2.75;;;;;;;;;;4988247;28;20503;-58
2023/09/14 04:39:17;;;;;;;7.03;2.37;;;;;;;;;;4991800;28;20422;-58
2023/09/14 04:41:42;;;;;;;7.50;2.60;;;;;;;;;;4988600;28;20499;-59
2023/09/14 04:44:07;;;;;;;8.33;2.80;;;;;;;;;;4984523;28;20430;-58
2023/09/14 04:46:33;;;;;;;8.40;2.70;;;;;;;;;;4985252;28;21216;-58
2023/09/14 04:48:58;;;;;;;7.87;2.50;;;;;;;;;;4981305;28;20528;-59
2023/09/14 04:51:24;;;;;;;10.55;2.97;;;;;;;;;;4983518;28;20394;-59
2023/09/14 04:53:49;;;;;;;8.70;2.63;;;;;;;;;;4988388;28;20416;-58
2023/09/14 04:56:15;;;;;;;7.50;2.63;;;;;;;;;;4989858;28;20501;-59
2023/09/14 04:58:40;;;;;;;7.77;2.60;;;;;;;;;;4988127;28;20406;-59
2023/09/14 05:01:05;;;;;;;8.00;2.60;;;;;;;;;;4988019;28;20433;-59
2023/09/14 05:03:31;;;;;;;8.27;2.90;;;;;;;;;;4995225;28;20521;-58
2023/09/14 05:05:56;;;;;;;6.43;2.50;;;;;;;;;;4990331;28;20492;-58
2023/09/14 05:08:21;;;;;;;7.03;2.40;;;;;;;;;;4984343;28;20411;-58
2023/09/14 05:10:51;;;;;;;7.83;2.63;;;;;;;;;;4985904;28;20406;-59
2023/09/14 05:13:18;;;;;;;7.53;2.80;;;;;;;;;;4985687;28;20420;-59
2023/09/14 05:15:44;;;;;;;8.18;2.33;;;;;;;;;;4991430;28;20778;-59
2023/09/14 05:18:09;;;;;;;6.50;2.50;;;;;;;;;;4992621;28;20414;-58
2023/09/14 05:20:34;;;;;;;8.10;2.73;;;;;;;;;;4994445;28;20552;-58
2023/09/14 05:23:00;;;;;;;6.63;2.53;;;;;;;;;;4990265;28;20771;-58
2023/09/14 05:25:27;;;;;;;8.60;2.73;;;;;;;;;;4990656;28;20395;-58
2023/09/14 05:27:53;;;;;;;8.80;2.60;;;;;;;;;;5005441;28;20485;-58
2023/09/14 05:30:21;;;;;;;7.27;2.30;;;;;;;;;;5018718;28;20483;-59
2023/09/14 05:32:47;;;;;;;8.90;2.50;;;;;;;;;;5026191;28;20410;-58
2023/09/14 05:35:12;;;;;;;6.78;2.35;;;;;;;;;;5023398;28;20407;-58
2023/09/14 05:37:37;;;;;;;9.13;3.00;;;;;;;;;;5019774;28;20461;-58
2023/09/14 05:40:09;;;;;;;6.87;2.30;;;;;;;;;;5013773;28;20513;-59
2023/09/14 05:42:37;;;;;;;6.65;2.22;;;;;;;;;;5013714;28;20915;-58
2023/09/14 05:45:04;;;;;;;6.65;2.35;;;;;;;;;;5017144;28;20918;-59
2023/09/14 05:47:29;;;;;;;8.10;2.63;;;;;;;;;;5012821;28;20500;-59
2023/09/14 05:49:54;;;;;;;7.77;2.50;;;;;;;;;;5025567;28;20490;-59
2023/09/14 05:52:20;;;;;;;8.97;2.63;;;;;;;;;;5022644;28;20399;-59
2023/09/14 05:54:45;;;;;;;7.10;2.60;;;;;;;;;;5022644;28;20407;-59
2023/09/14 05:57:10;;;;;;;5.97;2.37;;;;;;;;;;5025036;28;20805;-59
2023/09/14 05:59:35;;;;;;;6.07;2.20;;;;;;;;;;5025536;28;20410;-59
2023/09/14 06:02:01;;;;;;;5.68;2.30;;;;;;;;;;5020055;28;20594;-59
2023/09/14 06:04:26;;;;;;;8.23;2.50;;;;;;;;;;5024584;28;20415;-59
2023/09/14 06:06:51;;;;;;;6.13;2.00;;;;;;;;;;5025732;28;20395;-59
2023/09/14 06:09:17;;;;;;;6.40;2.27;;;;;;;;;;5020415;28;20963;-59
2023/09/14 06:11:42;;;;;;;6.83;2.30;;;;;;;;;;5024291;28;20423;-58
2023/09/14 06:14:08;;;;;;;6.63;2.60;;;;;;;;;;5025128;28;20979;-58
2023/09/14 06:16:33;;;;;;;5.90;1.90;;;;;;;;;;5022412;28;20391;-58
2023/09/14 06:18:58;;;;;;;7.27;2.37;;;;;;;;;;5022395;28;20457;-59
2023/09/14 06:21:24;;;;;;;6.63;2.17;;;;;;;;;;5024683;28;20409;-59
2023/09/14 06:23:49;;;;;;;7.20;2.00;;;;;;;;;;5024585;28;20789;-59
2023/09/14 06:26:14;;;;;;;6.60;2.03;;;;;;;;;;5019563;28;20449;-59
2023/09/14 06:28:40;;;;;;;6.97;2.00;;;;;;;;;;5023983;28;20435;-59
2023/09/14 06:31:05;;;;;;;7.85;2.17;;;;;;;;;;5023734;28;20431;-59
2023/09/14 06:33:30;;;;;;;6.63;2.08;;;;;;;;;;5014533;28;20411;-59
2023/09/14 06:35:56;;;;;;;5.27;1.70;;;;;;;;;;5026784;28;20412;-59
2023/09/14 06:38:21;;;;;;;6.33;1.93;;;;;;;;;;5010447;28;20404;-59
2023/09/14 06:40:46;;;;;;;6.43;1.87;;;;;;;;;;5016400;28;20403;-59
2023/09/14 06:43:12;;;;;;;8.73;2.10;;;;;;;;;;5026662;28;20761;-59
2023/09/14 06:45:37;;;;;;;7.33;2.00;;;;;;;;;;5015219;28;20767;-59
2023/09/14 06:48:02;;;;;;;6.57;2.50;;;;;;;;;;5025522;28;20426;-59
2023/09/14 06:50:28;;;;;;;8.17;2.87;;;;;;;;;;5022521;28;20399;-59
2023/09/14 06:52:53;;;;;;;8.10;2.73;;;;;;;;;;5021570;28;20418;-59
2023/09/14 06:55:19;;;;;;;7.90;2.53;;;;;;;;;;5023969;28;20399;-59
2023/09/14 06:57:45;;;;;;;10.57;3.33;;;;;;;;;;5032616;28;20399;-59
2023/09/14 07:00:14;;;;;;;9.43;2.92;;;;;;;;;;5028272;28;20399;-59
2023/09/14 07:02:40;;;;;;;9.90;3.40;;;;;;;;;;5036156;28;20524;-59
2023/09/14 07:05:05;;;;;;;8.32;2.80;;;;;;;;;;5033291;28;20968;-58
2023/09/14 07:07:30;;;;;;;8.10;3.10;;;;;;;;;;5028174;28;20415;-59
2023/09/14 07:09:56;;;;;;;7.60;2.77;;;;;;;;;;5030622;28;20541;-59
2023/09/14 07:12:21;;;;;;;11.43;3.40;;;;;;;;;;5035021;28;20382;-59
2023/09/14 07:14:47;;;;;;;9.33;2.97;;;;;;;;;;5040044;28;20419;-59
2023/09/14 07:17:12;;;;;;;8.43;2.67;;;;;;;;;;5018120;28;20423;-58
2023/09/14 07:19:37;;;;;;;8.50;2.85;;;;;;;;;;5035768;28;20390;-59
2023/09/14 07:22:03;;;;;;;8.82;2.97;;;;;;;;;;5030147;28;20421;-58
2023/09/14 07:24:28;;;;;;;7.73;2.63;;;;;;;;;;5031923;28;20411;-59
2023/09/14 07:26:54;;;;;;;9.23;3.20;;;;;;;;;;5031086;28;20395;-59
2023/09/14 07:29:19;;;;;;;7.23;2.80;;;;;;;;;;5030188;28;20422;-59
2023/09/14 07:31:45;;;;;;;7.00;2.65;;;;;;;;;;5034738;28;20459;-59
2023/09/14 07:34:11;;;;;;;7.40;2.80;;;;;;;;;;5033081;28;20409;-59
2023/09/14 07:36:36;;;;;;;7.03;2.70;;;;;;;;;;5029829;28;20449;-59
2023/09/14 07:39:02;;;;;;;6.43;2.50;;;;;;;;;;5028596;28;20439;-59
2023/09/14 07:41:27;;;;;;;8.90;2.77;;;;;;;;;;5034770;28;20447;-58
2023/09/14 07:43:53;;;;;;;7.63;2.93;;;;;;;;;;5034492;28;20417;-59
2023/09/14 07:46:18;;;;;;;6.80;3.00;;;;;;;;;;5027468;28;20410;-59
2023/09/14 07:48:43;;;;;;;8.93;3.10;;;;;;;;;;5017681;28;20418;-59
2023/09/14 07:51:09;;;;;;;8.07;3.07;;;;;;;;;;5032498;28;20399;-58
2023/09/14 07:53:34;;;;;;;7.47;3.00;;;;;;;;;;5031619;28;20401;-59
2023/09/14 07:55:59;;;;;;;7.82;2.97;;;;;;;;;;5032982;28;20404;-59
2023/09/14 07:58:25;;;;;;;8.63;2.60;;;;;;;;;;5018252;28;20508;-59
2023/09/14 08:00:50;;;;;;;6.73;2.77;;;;;;;;;;5033555;28;20402;-59
2023/09/14 08:03:15;;;;;;;8.63;3.40;;;;;;;;;;5031964;28;20425;-58
2023/09/14 08:05:41;;;;;;;7.53;2.90;;;;;;;;;;5038345;28;20387;-58
2023/09/14 08:08:06;;;;;;;8.13;2.73;;;;;;;;;;5029613;28;20497;-60
2023/09/14 08:10:32;;;;;;;6.17;2.53;;;;;;;;;;5035582;28;20405;-59
2023/09/14 08:12:58;;;;;;;8.33;2.90;;;;;;;;;;5032766;28;20409;-59
2023/09/14 08:15:24;;;;;;;7.15;2.58;;;;;;;;;;5028007;28;20457;-59
2023/09/14 08:17:49;;;;;;;7.20;2.60;;;;;;;;;;5023264;28;20416;-59
2023/09/14 08:20:14;;;;;;;7.53;2.70;;;;;;;;;;5022461;28;20481;-59
2023/09/14 08:22:40;;;;;;;7.73;2.87;;;;;;;;;;5017440;28;20467;-59
2023/09/14 08:25:07;;;;;;;8.53;2.47;;;;;;;;;;5022364;28;20405;-58
2023/09/14 08:27:32;;;;;;;11.18;2.67;;;;;;;;;;5020695;28;20448;-59
2023/09/14 08:29:57;;;;;;;9.87;2.70;;;;;;;;;;5019343;28;20814;-58
2023/09/14 08:32:23;;;;;;;8.10;2.70;;;;;;;;;;5036962;28;20383;-58
2023/09/14 08:34:48;;;;;;;8.83;2.80;;;;;;;;;;5030245;28;20403;-59
2023/09/14 08:37:13;;;;;;;7.03;2.33;;;;;;;;;;5030690;28;20402;-59
2023/09/14 08:39:39;;;;;;;7.63;2.47;;;;;;;;;;5033651;28;20390;-59
2023/09/14 08:42:04;;;;;;;7.23;2.80;;;;;;;;;;5031979;28;20405;-59
2023/09/14 08:44:33;;;;;;;9.07;2.70;;;;;;;;;;5026908;28;20752;-59
2023/09/14 08:46:58;;;;;;;6.80;2.45;;;;;;;;;;5025241;28;20412;-59
2023/09/14 08:49:23;;;;;;;7.57;2.40;;;;;;;;;;5036111;28;20391;-59
2023/09/14 08:51:49;;;;;;;6.53;2.67;;;;;;;;;;5020911;28;20410;-59
2023/09/14 08:54:14;;;;;;;8.00;2.75;;;;;;;;;;5024882;28;21002;-59
2023/09/14 08:56:39;;;;;;;9.02;2.38;;;;;;;;;;5026779;28;20421;-59
2023/09/14 08:59:06;;;;;;;8.85;2.70;;;;;;;;;;5023995;28;20403;-59
2023/09/14 09:01:31;;;;;;;8.82;2.83;;;;;;;;;;5031564;28;20407;-59
2023/09/14 09:03:56;;;;;;;9.77;2.97;;;;;;;;;;5034591;28;20521;-59
2023/09/14 09:06:22;;;;;;;8.10;2.50;;;;;;;;;;5037996;28;20483;-59
2023/09/14 09:08:47;;;;;;;9.85;3.15;;;;;;;;;;5045270;28;20417;-58
2023/09/14 09:11:13;;;;;;;13.40;3.05;;;;;;;;;;5030724;28;20460;-59
2023/09/14 09:13:43;;;;;;;7.63;2.87;;;;;;;;;;5035530;28;20434;-59
2023/09/14 09:16:10;;;;;;;8.33;2.50;;;;;;;;;;5042063;28;20408;-59
2023/09/14 09:18:37;;;;;;;11.80;3.50;;;;;;;;;;5029430;28;20835;-59
2023/09/14 09:21:05;;;;;;;9.15;2.80;;;;;;;;;;5032975;28;20407;-59
2023/09/14 09:23:32;;;;;;;9.90;2.88;;;;;;;;;;5037728;28;20425;-59
2023/09/14 09:25:57;;;;;;;12.02;3.42;;;;;;;;;;5034950;28;20958;-56
2023/09/14 09:28:29;;;;;;;10.87;3.80;;;;;;;;;;5024119;28;20403;-56
2023/09/14 09:30:55;;;;;;;9.48;3.80;;;;;;;;;;5033181;28;20410;-56
2023/09/14 09:33:32;;;;;;;9.83;3.37;;;;;;;;;;5023215;28;20419;-56
2023/09/14 09:35:58;;;;;;;10.13;3.13;;;;;;;;;;5026962;28;20486;-57
2023/09/14 09:38:26;;;;;;;11.00;3.70;;;;;;;;;;5032259;28;20845;-56
2023/09/14 09:40:52;;;;;;;9.57;3.80;;;;;;;;;;5015780;28;20411;-56
2023/09/14 09:43:18;;;;;;;11.45;4.60;;;;;;;;;;5034817;28;20441;-56
2023/09/14 09:45:44;;;;;;;9.90;4.72;;;;;;;;;;5036951;28;20386;-56
2023/09/14 09:48:09;;;;;;;11.40;4.70;;;;;;;;;;5031197;28;20411;-57
2023/09/14 09:50:34;;;;;;;11.27;5.00;;;;;;;;;;5029822;28;20403;-56
2023/09/14 09:53:00;;;;;;;13.10;5.20;;;;;;;;;;5024878;28;20439;-56
2023/09/14 09:55:25;;;;;;;11.47;5.23;;;;;;;;;;5020436;28;20391;-56
2023/09/14 09:57:52;;;;;;;10.63;5.07;;;;;;;;;;5029897;28;20552;-56
2023/09/14 10:00:19;;;;;;;11.10;4.82;;;;;;;;;;5034805;28;20402;-56
2023/09/14 10:02:44;;;;;;;10.50;5.28;;;;;;;;;;5020710;28;20996;-56
2023/09/14 10:05:10;;;;;;;11.65;5.20;;;;;;;;;;5028535;28;20434;-56
2023/09/14 10:07:36;;;;;;;12.07;5.40;;;;;;;;;;5037618;28;20405;-56
2023/09/14 10:10:01;;;;;;;11.83;5.70;;;;;;;;;;5036235;28;20400;-57
2023/09/14 10:12:27;;;;;;;11.20;5.50;;;;;;;;;;5029797;28;20415;-56
2023/09/14 10:14:54;;;;;;;13.60;6.05;;;;;;;;;;5022510;28;20781;-56
2023/09/14 10:17:20;;;;;;;10.50;5.20;;;;;;;;;;5035159;28;20807;-56
2023/09/14 10:19:47;;;;;;;11.60;5.47;;;;;;;;;;5035291;28;20401;-56
2023/09/14 10:22:13;;;;;;;9.20;4.20;;;;;;;;;;5025581;28;20405;-56
2023/09/14 10:24:38;;;;;;;9.57;4.50;;;;;;;;;;5023829;28;20423;-56
2023/09/14 10:27:03;;;;;;;9.20;4.10;;;;;;;;;;5033113;28;20399;-57
2023/09/14 10:29:29;;;;;;;8.52;3.90;;;;;;;;;;5033636;28;20439;-56
2023/09/14 10:31:54;;;;;;;9.25;3.60;;;;;;;;;;5032720;28;20447;-56
2023/09/14 10:34:20;;;;;;;9.68;3.92;;;;;;;;;;5023003;28;20446;-57
2023/09/14 10:36:45;;;;;;;6.97;3.10;;;;;;;;;;5021662;28;20406;-56
2023/09/14 10:39:12;;;;;;;7.80;3.53;;;;;;;;;;5022370;28;20408;-57
2023/09/14 10:41:37;;;;;;;8.30;3.30;;;;;;;;;;5024145;28;20395;-56
2023/09/14 10:44:04;;;;;;;6.17;2.97;;;;;;;;;;5022331;28;20420;-57
2023/09/14 10:46:30;;;;;;;5.85;2.58;;;;;;;;;;5020452;28;21193;-56
2023/09/14 10:48:56;;;;;;;7.23;2.77;;;;;;;;;;5014859;28;20447;-56
2023/09/14 10:51:22;;;;;;;7.45;3.10;;;;;;;;;;5020080;28;20418;-56
2023/09/14 10:53:47;;;;;;;8.25;3.20;;;;;;;;;;5020420;28;20407;-56
2023/09/14 10:56:20;;;;;;;8.60;3.40;;;;;;;;;;5020253;28;20411;-56
2023/09/14 10:58:45;;;;;;;7.82;2.97;;;;;;;;;;5023079;28;20395;-56
2023/09/14 11:01:11;;;;;;;6.93;2.77;;;;;;;;;;5020686;28;20805;-57
2023/09/14 11:03:55;;;;;;;7.37;2.67;;;;;;;;;;5022096;28;20496;-56
2023/09/14 11:06:39;;;;;;;7.55;2.97;;;;;;;;;;5017814;28;20392;-56
2023/09/14 11:09:05;;;;;;;7.28;2.85;;;;;;;;;;5026937;28;20493;-56
2023/09/14 11:11:39;;;;;;;7.20;2.95;;;;;;;;;;5022036;28;20437;-56
2023/09/14 11:14:06;;;;;;;5.70;2.75;;;;;;;;;;5019305;28;20905;-57
2023/09/14 11:16:40;;;;;;;7.13;2.50;;;;;;;;;;5024464;28;20882;-56
2023/09/14 11:19:05;;;;;;;6.73;2.60;;;;;;;;;;5023250;28;20399;-57
2023/09/14 11:21:31;;;;;;;7.80;2.47;;;;;;;;;;5028665;28;20743;-56
2023/09/14 11:23:56;;;;;;;6.90;2.38;;;;;;;;;;5030616;28;20422;-56
2023/09/14 11:26:28;;;;;;;5.80;2.53;;;;;;;;;;5034581;28;20903;-56
2023/09/14 11:28:54;;;;;;;7.47;2.90;;;;;;;;;;5033818;28;20492;-56
2023/09/14 11:31:26;;;;;;;6.05;2.42;;;;;;;;;;5018256;28;20494;-56
2023/09/14 11:33:52;;;;;;;6.55;2.30;;;;;;;;;;5022008;28;20414;-56
2023/09/14 11:36:17;;;;;;;5.93;2.67;;;;;;;;;;5021937;28;20408;-56
2023/09/14 11:38:42;;;;;;;5.90;2.50;;;;;;;;;;5018061;28;20861;-56
2023/09/14 11:41:08;;;;;;;5.53;2.57;;;;;;;;;;5022028;28;20953;-57
2023/09/14 11:43:38;;;;;;;6.47;2.67;;;;;;;;;;5027432;28;20407;-56
2023/09/14 11:46:04;;;;;;;17.60;2.42;;;;;;;;;;5020437;28;20411;-56
2023/09/14 11:48:32;;;;;;;6.03;2.67;;;;;;;;;;5018433;28;20414;-56
2023/09/14 11:51:00;;;;;;;7.28;2.50;;;;;;;;;;5022989;28;20410;-57
2023/09/14 11:53:25;;;;;;;6.65;2.47;;;;;;;;;;5026404;28;20447;-56
2023/09/14 11:55:51;;;;;;;7.60;2.43;;;;;;;;;;5022495;28;20805;-57
2023/09/14 11:58:17;;;;;;;5.53;2.40;;;;;;;;;;5030446;28;20899;-56
2023/09/14 12:00:43;;;;;;;5.13;2.40;;;;;;;;;;5012864;28;20861;-56
2023/09/14 12:03:08;;;;;;;7.03;2.43;;;;;;;;;;5017681;28;21032;-57
2023/09/14 12:05:34;;;;;;;4.47;2.20;;;;;;;;;;5017807;28;20479;-56
2023/09/14 12:08:07;;;;;;;6.60;2.65;;;;;;;;;;5021452;28;20420;-56
2023/09/14 12:10:32;;;;;;;6.15;2.40;;;;;;;;;;5021823;28;20402;-57
2023/09/14 12:13:06;;;;;;;5.77;2.43;;;;;;;;;;5018011;28;21051;-57
2023/09/14 12:15:31;;;;;;;6.50;2.45;;;;;;;;;;5022205;28;20975;-56
2023/09/14 12:17:57;;;;;;;6.27;2.50;;;;;;;;;;5023654;28;20513;-56
2023/09/14 12:20:22;;;;;;;6.20;2.33;;;;;;;;;;5021414;28;20723;-56
2023/09/14 12:22:47;;;;;;;7.57;3.00;;;;;;;;;;5020754;28;20419;-56
2023/09/14 12:25:13;;;;;;;6.10;2.53;;;;;;;;;;5022003;28;20917;-56
2023/09/14 12:27:38;;;;;;;7.37;2.77;;;;;;;;;;5023650;28;20391;-56
2023/09/14 12:30:05;;;;;;;7.23;2.70;;;;;;;;;;5018384;28;20509;-57
2023/09/14 12:32:31;;;;;;;5.53;2.22;;;;;;;;;;5022394;28;20416;-56
2023/09/14 12:34:56;;;;;;;6.83;2.53;;;;;;;;;;5023427;28;20402;-56
2023/09/14 12:37:22;;;;;;;5.03;2.10;;;;;;;;;;5018717;28;20389;-56
2023/09/14 12:39:51;;;;;;;4.93;2.20;;;;;;;;;;5022181;28;20405;-56
2023/09/14 12:42:18;;;;;;;6.57;2.47;;;;;;;;;;5021652;28;20404;-57
2023/09/14 12:44:43;;;;;;;6.32;2.50;;;;;;;;;;5021420;28;20918;-56
2023/09/14 12:47:08;;;;;;;5.17;2.13;;;;;;;;;;5019560;28;20406;-57
2023/09/14 12:49:34;;;;;;;5.30;2.37;;;;;;;;;;5023009;28;20458;-56
2023/09/14 12:52:00;;;;;;;6.25;2.60;;;;;;;;;;5023476;28;20391;-56
2023/09/14 12:54:26;;;;;;;7.23;2.50;;;;;;;;;;5019757;28;20459;-56
2023/09/14 12:56:51;;;;;;;7.90;2.50;;;;;;;;;;5033940;28;20413;-57
2023/09/14 12:59:17;;;;;;;5.50;2.47;;;;;;;;;;5032076;28;20395;-56
2023/09/14 13:01:42;;;;;;;6.45;2.70;;;;;;;;;;5015842;28;20449;-56
2023/09/14 13:04:08;;;;;;;6.73;2.50;;;;;;;;;;5028642;28;20419;-57
2023/09/14 13:06:34;;;;;;;7.55;2.35;;;;;;;;;;5034380;28;21359;-56
2023/09/14 13:09:06;;;;;;;5.50;2.70;;;;;;;;;;5033424;28;20406;-57
2023/09/14 13:11:32;;;;;;;5.72;2.67;;;;;;;;;;5017219;28;20399;-56
2023/09/14 13:13:57;;;;;;;5.87;2.67;;;;;;;;;;5013982;28;20890;-56
2023/09/14 13:16:23;;;;;;;8.85;2.70;;;;;;;;;;5022329;28;20388;-56
2023/09/14 13:18:48;;;;;;;6.82;2.47;;;;;;;;;;5017276;28;20413;-56
2023/09/14 13:21:13;;;;;;;5.30;2.50;;;;;;;;;;5020637;28;20426;-57
2023/09/14 13:23:39;;;;;;;4.10;2.13;;;;;;;;;;5021498;28;20403;-56
2023/09/14 13:26:05;;;;;;;6.80;2.60;;;;;;;;;;5022050;28;20932;-57
2023/09/14 13:28:30;;;;;;;5.67;2.87;;;;;;;;;;5029526;28;20418;-56
2023/09/14 13:30:55;;;;;;;6.13;2.77;;;;;;;;;;5015113;28;20526;-56
2023/09/14 13:33:21;;;;;;;5.83;2.60;;;;;;;;;;4999279;28;20398;-56
2023/09/14 13:35:47;;;;;;;5.60;2.47;;;;;;;;;;4988515;28;20488;-56
2023/09/14 13:38:12;;;;;;;5.80;2.60;;;;;;;;;;4991030;28;20411;-56
2023/09/14 13:40:38;;;;;;;6.13;2.77;;;;;;;;;;4989669;28;20411;-56
2023/09/14 13:43:03;;;;;;;6.70;2.60;;;;;;;;;;4995674;28;20898;-57
2023/09/14 13:45:29;;;;;;;8.10;2.70;;;;;;;;;;5001836;28;20414;-56
2023/09/14 13:47:55;;;;;;;5.78;2.40;;;;;;;;;;4994617;28;20437;-56
2023/09/14 13:50:20;;;;;;;6.70;2.88;;;;;;;;;;4995702;28;20444;-57
2023/09/14 13:52:46;;;;;;;5.67;2.43;;;;;;;;;;5003466;28;20934;-57
2023/09/14 13:55:11;;;;;;;6.43;2.60;;;;;;;;;;4992671;28;21106;-56
2023/09/14 13:57:37;;;;;;;6.27;2.60;;;;;;;;;;4990239;28;21296;-57
2023/09/14 14:00:05;;;;;;;6.35;2.65;;;;;;;;;;4986801;28;20409;-57
2023/09/14 14:02:30;;;;;;;5.43;2.40;;;;;;;;;;4988632;28;20415;-57
2023/09/14 14:04:56;;;;;;;5.57;2.60;;;;;;;;;;4999432;28;20412;-57
2023/09/14 14:07:21;;;;;;;7.40;2.70;;;;;;;;;;4995069;28;20429;-57
2023/09/14 14:09:46;;;;;;;6.15;2.50;;;;;;;;;;4991510;28;20405;-57
2023/09/14 14:12:12;;;;;;;5.80;2.63;;;;;;;;;;4993432;28;21047;-57
2023/09/14 14:14:37;;;;;;;5.70;2.60;;;;;;;;;;4994266;28;20465;-57
2023/09/14 14:17:03;;;;;;;6.90;2.90;;;;;;;;;;4993188;28;20409;-57
2023/09/14 14:19:28;;;;;;;6.43;2.47;;;;;;;;;;4987543;28;21003;-57
2023/09/14 14:21:53;;;;;;;5.40;2.50;;;;;;;;;;4990557;28;20405;-57
2023/09/14 14:24:19;;;;;;;6.43;2.73;;;;;;;;;;4987455;28;20932;-57
2023/09/14 14:26:45;;;;;;;6.00;2.70;;;;;;;;;;4992279;28;20403;-57
2023/09/14 14:29:10;;;;;;;6.25;3.10;;;;;;;;;;4998318;28;20417;-57
2023/09/14 14:31:36;;;;;;;6.90;2.73;;;;;;;;;;4993488;28;20409;-57
2023/09/14 14:34:01;;;;;;;7.10;2.63;;;;;;;;;;4994062;28;20407;-58
2023/09/14 14:36:26;;;;;;;6.63;2.60;;;;;;;;;;4995622;28;20465;-57